Time;durP1;ratioP1;P1;durP2;ratioP2;P2;SDS_P1;SDS_P2;PMS_P1;PMS_P2;Temp;Humidity;BMP_temperature;BMP_pressure;BME280_temperature;BME280_humidity;BME280_pressure;Samples;Min_cycle;Max_cycle;Signal;HPM_P1;HPM_P2
2022/03/27 00:02:18;;;;;;;10.45;6.15;;;;;;;;;;5046073;28;20060;-68
2022/03/27 00:04:45;;;;;;;11.27;5.70;;;;;;;;;;5032153;28;20098;-68
2022/03/27 00:07:11;;;;;;;10.30;6.28;;;;;;;;;;5035373;28;20048;-68
2022/03/27 00:09:37;;;;;;;9.80;6.70;;;;;;;;;;5027698;28;20048;-68
2022/03/27 00:12:04;;;;;;;8.13;5.65;;;;;;;;;;5036961;28;20581;-69
2022/03/27 00:14:30;;;;;;;7.22;5.20;;;;;;;;;;5039857;28;20048;-69
2022/03/27 00:16:57;;;;;;;8.98;6.43;;;;;;;;;;5041970;28;20052;-69
2022/03/27 00:19:24;;;;;;;10.50;6.70;;;;;;;;;;5041910;28;20089;-68
2022/03/27 00:21:50;;;;;;;10.32;6.72;;;;;;;;;;5021517;28;20041;-68
2022/03/27 00:24:17;;;;;;;9.32;6.68;;;;;;;;;;5036669;28;20056;-68
2022/03/27 00:26:43;;;;;;;8.43;6.15;;;;;;;;;;5032545;28;20061;-68
2022/03/27 00:29:10;;;;;;;11.50;6.88;;;;;;;;;;5042220;28;20229;-69
2022/03/27 00:31:38;;;;;;;10.80;6.65;;;;;;;;;;5042090;28;20566;-69
2022/03/27 00:34:05;;;;;;;11.03;7.30;;;;;;;;;;5036222;28;20092;-68
2022/03/27 00:36:31;;;;;;;11.05;7.40;;;;;;;;;;5028937;28;20661;-69
2022/03/27 00:38:58;;;;;;;10.50;6.95;;;;;;;;;;5028732;28;20410;-69
2022/03/27 00:41:25;;;;;;;12.02;7.40;;;;;;;;;;5043694;28;20045;-69
2022/03/27 00:43:52;;;;;;;10.55;7.70;;;;;;;;;;5051201;28;20052;-69
2022/03/27 00:46:18;;;;;;;12.02;8.02;;;;;;;;;;5038008;28;20051;-69
2022/03/27 00:48:44;;;;;;;11.48;7.38;;;;;;;;;;5041358;28;20041;-69
2022/03/27 00:51:11;;;;;;;10.10;6.82;;;;;;;;;;5034134;28;20052;-69
2022/03/27 00:53:37;;;;;;;10.02;7.50;;;;;;;;;;5045219;28;20044;-69
2022/03/27 00:56:03;;;;;;;11.90;7.78;;;;;;;;;;5037293;28;20561;-69
2022/03/27 00:58:30;;;;;;;9.30;6.70;;;;;;;;;;5050850;28;20044;-69
2022/03/27 01:01:15;;;;;;;10.95;8.52;;;;;;;;;;5047382;28;20045;-69
2022/03/27 01:03:42;;;;;;;13.77;8.57;;;;;;;;;;5038596;28;20122;-69
2022/03/27 01:06:41;;;;;;;11.02;8.23;;;;;;;;;;5047447;28;20434;-68
2022/03/27 01:11:54;;;;;;;12.70;9.15;;;;;;;;;;5044930;28;20537;-69
2022/03/27 01:14:25;;;;;;;14.02;9.15;;;;;;;;;;5032785;28;20132;-69
2022/03/27 01:17:10;;;;;;;11.40;9.02;;;;;;;;;;5035292;28;20044;-69
2022/03/27 01:19:41;;;;;;;13.25;9.63;;;;;;;;;;5044203;28;20048;-69
2022/03/27 01:22:08;;;;;;;12.40;9.20;;;;;;;;;;5040069;28;20135;-68
2022/03/27 01:24:34;;;;;;;13.75;9.60;;;;;;;;;;5042521;28;20099;-68
2022/03/27 01:27:01;;;;;;;12.73;9.05;;;;;;;;;;5051299;28;20383;-68
2022/03/27 01:29:28;;;;;;;13.18;9.90;;;;;;;;;;5033178;28;20053;-68
2022/03/27 01:31:55;;;;;;;14.43;9.93;;;;;;;;;;5042133;28;20079;-68
2022/03/27 01:34:21;;;;;;;13.90;10.13;;;;;;;;;;5052276;28;20080;-69
2022/03/27 01:36:47;;;;;;;14.90;9.98;;;;;;;;;;5038978;28;20060;-69
2022/03/27 01:39:14;;;;;;;15.10;10.05;;;;;;;;;;5043544;28;20056;-69
2022/03/27 01:41:41;;;;;;;13.63;9.60;;;;;;;;;;5037259;28;20930;-69
2022/03/27 01:44:09;;;;;;;12.80;10.13;;;;;;;;;;5047682;28;20041;-69
2022/03/27 01:46:37;;;;;;;11.85;9.32;;;;;;;;;;5046966;28;20409;-69
2022/03/27 01:49:06;;;;;;;12.77;9.52;;;;;;;;;;5023939;28;20238;-69
2022/03/27 01:51:32;;;;;;;11.32;8.93;;;;;;;;;;5048185;28;20067;-69
2022/03/27 01:53:58;;;;;;;10.73;8.55;;;;;;;;;;5040043;28;20690;-69
2022/03/27 01:56:25;;;;;;;10.75;7.95;;;;;;;;;;5038246;28;20498;-69
2022/03/27 01:58:51;;;;;;;8.02;6.05;;;;;;;;;;5025393;28;20145;-69
2022/03/27 02:01:19;;;;;;;11.63;7.85;;;;;;;;;;5042401;28;20053;-69
2022/03/27 02:03:46;;;;;;;12.40;7.95;;;;;;;;;;5037966;28;20081;-69
2022/03/27 02:06:13;;;;;;;10.35;7.80;;;;;;;;;;5040189;28;20049;-69
2022/03/27 02:08:39;;;;;;;10.65;7.70;;;;;;;;;;5043399;28;20617;-69
2022/03/27 02:11:06;;;;;;;9.98;7.25;;;;;;;;;;5032514;28;20056;-68
2022/03/27 02:13:32;;;;;;;11.05;7.85;;;;;;;;;;5044233;28;20051;-68
2022/03/27 02:15:59;;;;;;;12.43;8.73;;;;;;;;;;5036718;28;20080;-68
2022/03/27 02:18:28;;;;;;;10.40;8.10;;;;;;;;;;5051911;28;20053;-68
2022/03/27 02:20:55;;;;;;;11.07;8.18;;;;;;;;;;5050132;28;20049;-68
2022/03/27 02:23:22;;;;;;;9.20;6.47;;;;;;;;;;5035455;28;20045;-68
2022/03/27 02:25:48;;;;;;;11.60;7.85;;;;;;;;;;5035812;28;20053;-68
2022/03/27 02:28:14;;;;;;;12.30;8.55;;;;;;;;;;5031449;28;20048;-69
2022/03/27 02:30:41;;;;;;;11.32;8.85;;;;;;;;;;5040742;28;20049;-68
2022/03/27 02:33:08;;;;;;;13.50;9.15;;;;;;;;;;5040102;28;20049;-68
2022/03/27 02:35:34;;;;;;;11.25;8.30;;;;;;;;;;5041379;28;20049;-69
2022/03/27 02:38:04;;;;;;;11.55;8.95;;;;;;;;;;5039734;28;20052;-69
2022/03/27 02:40:31;;;;;;;11.52;8.77;;;;;;;;;;5027647;28;20467;-68
2022/03/27 02:43:00;;;;;;;15.38;9.00;;;;;;;;;;5042033;28;20068;-68
2022/03/27 02:45:27;;;;;;;12.55;8.90;;;;;;;;;;5036007;28;20068;-68
2022/03/27 02:47:54;;;;;;;14.45;9.57;;;;;;;;;;5039730;28;20053;-68
2022/03/27 02:50:21;;;;;;;12.95;10.20;;;;;;;;;;5034566;28;21183;-67
2022/03/27 02:52:47;;;;;;;12.20;8.75;;;;;;;;;;5041975;28;20049;-67
2022/03/27 02:55:14;;;;;;;12.60;8.52;;;;;;;;;;5034993;28;20045;-67
2022/03/27 02:57:40;;;;;;;12.50;8.57;;;;;;;;;;5037022;28;20056;-67
2022/03/27 03:00:08;;;;;;;15.93;7.30;;;;;;;;;;5057647;28;20053;-67
2022/03/27 03:02:35;;;;;;;11.77;7.93;;;;;;;;;;5047644;28;20056;-66
2022/03/27 03:05:02;;;;;;;12.18;7.85;;;;;;;;;;5044065;28;20053;-66
2022/03/27 03:07:29;;;;;;;11.48;8.02;;;;;;;;;;5031088;28;20552;-67
2022/03/27 03:09:56;;;;;;;11.88;7.18;;;;;;;;;;5045035;28;20395;-67
2022/03/27 03:12:22;;;;;;;12.88;7.90;;;;;;;;;;5058420;28;20064;-67
2022/03/27 03:14:50;;;;;;;17.08;10.10;;;;;;;;;;5034247;28;20052;-67
2022/03/27 03:17:16;;;;;;;13.65;8.65;;;;;;;;;;5048277;28;20046;-67
2022/03/27 03:19:43;;;;;;;15.43;9.10;;;;;;;;;;5045457;28;20065;-67
2022/03/27 03:22:09;;;;;;;14.50;8.82;;;;;;;;;;5042051;28;20080;-67
2022/03/27 03:24:36;;;;;;;16.73;9.68;;;;;;;;;;5041932;28;20049;-67
2022/03/27 03:27:02;;;;;;;16.23;9.48;;;;;;;;;;5053151;28;20044;-67
2022/03/27 03:29:29;;;;;;;16.10;9.13;;;;;;;;;;5057955;28;20048;-66
2022/03/27 03:31:55;;;;;;;18.73;10.65;;;;;;;;;;5043507;28;20091;-67
2022/03/27 03:34:22;;;;;;;17.73;9.60;;;;;;;;;;5055545;28;20049;-67
2022/03/27 03:36:48;;;;;;;21.77;11.27;;;;;;;;;;5027120;28;20793;-67
2022/03/27 03:39:15;;;;;;;21.10;10.55;;;;;;;;;;5048706;28;20049;-67
2022/03/27 03:41:41;;;;;;;21.65;11.50;;;;;;;;;;5027085;28;20099;-67
2022/03/27 03:44:22;;;;;;;22.45;12.77;;;;;;;;;;5035938;28;20434;-67
2022/03/27 03:46:49;;;;;;;22.90;12.57;;;;;;;;;;5041448;28;20049;-67
2022/03/27 03:49:16;;;;;;;23.05;12.45;;;;;;;;;;5034880;28;20048;-67
2022/03/27 03:51:42;;;;;;;24.83;13.00;;;;;;;;;;5047328;28;20049;-67
2022/03/27 03:54:08;;;;;;;20.67;11.65;;;;;;;;;;5032345;28;20048;-67
2022/03/27 03:56:35;;;;;;;25.45;11.75;;;;;;;;;;5034870;28;20516;-68
2022/03/27 03:59:01;;;;;;;24.17;13.27;;;;;;;;;;5032340;28;20049;-67
2022/03/27 04:01:48;;;;;;;28.65;13.77;;;;;;;;;;5025630;28;20052;-67
2022/03/27 04:04:14;;;;;;;26.70;13.00;;;;;;;;;;5028837;28;20075;-67
2022/03/27 04:06:41;;;;;;;24.95;13.85;;;;;;;;;;5039118;28;20053;-67
2022/03/27 04:09:07;;;;;;;26.40;12.75;;;;;;;;;;5060289;28;20052;-67
2022/03/27 04:11:33;;;;;;;23.83;12.05;;;;;;;;;;5033138;28;20147;-67
2022/03/27 04:14:02;;;;;;;25.92;14.18;;;;;;;;;;5039312;28;20052;-67
2022/03/27 04:16:29;;;;;;;24.70;13.13;;;;;;;;;;5030127;28;20049;-67
2022/03/27 04:18:55;;;;;;;23.52;12.35;;;;;;;;;;5041097;28;20044;-68
2022/03/27 04:21:21;;;;;;;24.55;13.43;;;;;;;;;;5038714;28;20067;-68
2022/03/27 04:23:48;;;;;;;24.55;12.60;;;;;;;;;;5056509;28;20055;-67
2022/03/27 04:26:14;;;;;;;22.15;12.40;;;;;;;;;;5043312;28;20053;-68
2022/03/27 04:28:41;;;;;;;26.60;13.45;;;;;;;;;;5028138;28;20053;-67
2022/03/27 04:31:07;;;;;;;25.25;12.50;;;;;;;;;;5050366;28;20051;-67
2022/03/27 04:33:34;;;;;;;22.42;11.63;;;;;;;;;;5043792;28;20176;-68
2022/03/27 04:36:02;;;;;;;21.70;11.23;;;;;;;;;;5042003;28;20073;-68
2022/03/27 04:38:28;;;;;;;19.50;11.52;;;;;;;;;;5046702;28;20049;-67
2022/03/27 04:40:55;;;;;;;20.05;10.85;;;;;;;;;;5036449;28;20052;-67
2022/03/27 04:43:22;;;;;;;19.27;11.63;;;;;;;;;;5038867;28;20044;-69
2022/03/27 04:45:49;;;;;;;18.58;10.77;;;;;;;;;;5045955;28;20064;-67
2022/03/27 04:48:15;;;;;;;19.73;10.75;;;;;;;;;;5055379;28;20064;-68
2022/03/27 04:50:42;;;;;;;17.70;10.27;;;;;;;;;;5042328;28;20055;-68
2022/03/27 04:53:10;;;;;;;19.33;9.98;;;;;;;;;;5032657;28;20049;-68
2022/03/27 04:55:36;;;;;;;17.85;9.95;;;;;;;;;;5041713;28;20426;-67
2022/03/27 04:58:06;;;;;;;17.80;10.27;;;;;;;;;;5030469;28;20533;-68
2022/03/27 05:00:32;;;;;;;19.00;10.18;;;;;;;;;;5061195;28;20064;-68
2022/03/27 05:02:59;;;;;;;16.42;9.65;;;;;;;;;;5038884;28;20350;-68
2022/03/27 05:05:25;;;;;;;16.42;9.18;;;;;;;;;;5058550;28;20538;-68
2022/03/27 05:07:53;;;;;;;15.25;8.88;;;;;;;;;;5040863;28;20054;-68
2022/03/27 05:10:19;;;;;;;17.35;9.38;;;;;;;;;;5037483;28;20195;-67
2022/03/27 05:12:46;;;;;;;14.68;8.75;;;;;;;;;;5039538;28;20061;-68
2022/03/27 05:15:12;;;;;;;16.58;9.85;;;;;;;;;;5044948;28;20580;-69
2022/03/27 05:17:46;;;;;;;17.08;9.43;;;;;;;;;;5044296;28;20052;-67
2022/03/27 05:20:12;;;;;;;13.68;8.65;;;;;;;;;;5047010;28;20051;-68
2022/03/27 05:22:40;;;;;;;13.00;8.60;;;;;;;;;;5044129;28;20072;-68
2022/03/27 05:25:06;;;;;;;16.83;10.15;;;;;;;;;;5036124;28;20127;-68
2022/03/27 05:27:33;;;;;;;17.20;10.18;;;;;;;;;;5037807;28;20052;-68
2022/03/27 05:29:59;;;;;;;15.18;9.65;;;;;;;;;;5037222;28;20045;-68
2022/03/27 05:32:25;;;;;;;14.48;9.25;;;;;;;;;;5027086;28;20437;-67
2022/03/27 05:34:51;;;;;;;15.35;8.77;;;;;;;;;;5029784;28;20056;-68
2022/03/27 05:37:18;;;;;;;14.07;9.10;;;;;;;;;;5028302;28;20048;-67
2022/03/27 05:39:44;;;;;;;13.75;8.40;;;;;;;;;;5041897;28;20077;-68
2022/03/27 05:42:10;;;;;;;16.67;9.30;;;;;;;;;;5047165;28;20502;-68
2022/03/27 05:44:37;;;;;;;14.20;8.50;;;;;;;;;;5047669;28;20063;-68
2022/03/27 05:47:03;;;;;;;16.27;9.57;;;;;;;;;;5055088;28;20049;-68
2022/03/27 05:49:29;;;;;;;15.57;8.98;;;;;;;;;;5041418;28;20047;-68
2022/03/27 05:51:56;;;;;;;13.45;7.95;;;;;;;;;;5038914;28;20045;-67
2022/03/27 05:54:22;;;;;;;14.32;7.97;;;;;;;;;;5020816;28;20037;-68
2022/03/27 05:56:49;;;;;;;16.75;8.60;;;;;;;;;;5034981;28;20045;-68
2022/03/27 05:59:16;;;;;;;13.57;8.73;;;;;;;;;;5040717;28;20443;-69
2022/03/27 06:01:44;;;;;;;12.90;7.63;;;;;;;;;;5035238;28;20070;-67
2022/03/27 06:04:10;;;;;;;13.23;8.52;;;;;;;;;;5036163;28;20053;-67
2022/03/27 06:06:37;;;;;;;12.75;7.60;;;;;;;;;;5033165;28;20052;-67
2022/03/27 06:09:03;;;;;;;15.00;8.85;;;;;;;;;;5037524;28;20047;-68
2022/03/27 06:11:29;;;;;;;19.40;9.35;;;;;;;;;;5033713;28;20041;-67
2022/03/27 06:13:55;;;;;;;15.50;9.15;;;;;;;;;;5051896;28;20063;-68
2022/03/27 06:16:23;;;;;;;13.90;8.23;;;;;;;;;;5043307;28;20049;-68
2022/03/27 06:18:49;;;;;;;13.27;7.78;;;;;;;;;;5035062;28;20150;-67
2022/03/27 06:21:16;;;;;;;14.55;8.18;;;;;;;;;;5040435;28;20048;-67
2022/03/27 06:23:45;;;;;;;14.15;8.32;;;;;;;;;;5048420;28;20530;-68
2022/03/27 06:26:11;;;;;;;13.55;8.63;;;;;;;;;;5034072;28;20064;-68
2022/03/27 06:28:38;;;;;;;15.43;9.02;;;;;;;;;;5033517;28;20060;-68
2022/03/27 06:31:04;;;;;;;15.40;8.90;;;;;;;;;;5038907;28;20470;-68
2022/03/27 06:33:30;;;;;;;16.17;9.07;;;;;;;;;;5045922;28;20033;-67
2022/03/27 06:35:58;;;;;;;17.10;8.90;;;;;;;;;;5033937;28;20063;-68
2022/03/27 06:38:24;;;;;;;15.13;9.00;;;;;;;;;;5042819;28;20041;-68
2022/03/27 06:40:50;;;;;;;19.58;9.80;;;;;;;;;;5035290;28;20072;-68
2022/03/27 06:43:17;;;;;;;14.52;9.07;;;;;;;;;;5036848;28;20137;-67
2022/03/27 06:45:43;;;;;;;15.70;9.10;;;;;;;;;;5043679;28;20052;-68
2022/03/27 06:48:10;;;;;;;17.50;9.40;;;;;;;;;;5044883;28;20128;-67
2022/03/27 06:50:36;;;;;;;15.93;9.55;;;;;;;;;;5038611;28;20053;-67
2022/03/27 06:53:02;;;;;;;16.08;9.50;;;;;;;;;;5045327;28;20060;-67
2022/03/27 06:55:29;;;;;;;17.92;10.70;;;;;;;;;;5047698;28;20409;-68
2022/03/27 06:57:55;;;;;;;19.38;10.23;;;;;;;;;;5035167;28;20048;-68
2022/03/27 07:03:09;;;;;;;21.92;10.18;;;;;;;;;;5046824;28;20041;-68
2022/03/27 07:05:38;;;;;;;18.20;10.18;;;;;;;;;;5037762;28;20049;-68
2022/03/27 07:08:05;;;;;;;18.33;9.90;;;;;;;;;;5057333;28;20044;-68
2022/03/27 07:10:32;;;;;;;18.38;10.50;;;;;;;;;;5037767;28;20041;-68
2022/03/27 07:12:58;;;;;;;17.75;10.27;;;;;;;;;;5038327;28;20060;-68
2022/03/27 07:15:24;;;;;;;19.42;10.88;;;;;;;;;;5031495;28;20045;-68
2022/03/27 07:17:51;;;;;;;22.70;11.52;;;;;;;;;;5041322;28;20050;-68
2022/03/27 07:20:19;;;;;;;21.80;11.20;;;;;;;;;;5037466;28;20048;-68
2022/03/27 07:22:46;;;;;;;21.50;11.90;;;;;;;;;;5033808;28;20048;-68
2022/03/27 07:25:13;;;;;;;23.58;11.73;;;;;;;;;;5044093;28;20045;-68
2022/03/27 07:27:40;;;;;;;21.33;11.63;;;;;;;;;;5028620;28;20053;-68
2022/03/27 07:30:06;;;;;;;21.48;11.23;;;;;;;;;;5037573;28;20052;-68
2022/03/27 07:32:33;;;;;;;21.05;11.23;;;;;;;;;;5039328;28;20049;-68
2022/03/27 07:34:59;;;;;;;21.33;11.30;;;;;;;;;;5046131;28;20045;-68
2022/03/27 07:37:26;;;;;;;19.70;10.90;;;;;;;;;;5032248;28;20643;-68
2022/03/27 07:39:52;;;;;;;21.50;11.07;;;;;;;;;;5044189;28;20072;-67
2022/03/27 07:42:18;;;;;;;19.65;10.13;;;;;;;;;;5055235;28;20448;-68
2022/03/27 07:44:45;;;;;;;22.25;11.10;;;;;;;;;;5036212;28;20041;-68
2022/03/27 07:47:11;;;;;;;20.73;10.77;;;;;;;;;;5044850;28;20051;-68
2022/03/27 07:49:37;;;;;;;18.30;9.75;;;;;;;;;;5034903;28;20055;-68
2022/03/27 07:52:06;;;;;;;21.83;10.20;;;;;;;;;;5049392;28;20052;-68
2022/03/27 07:54:32;;;;;;;17.58;9.73;;;;;;;;;;5024114;28;20056;-68
2022/03/27 07:56:58;;;;;;;20.67;10.52;;;;;;;;;;5046277;28;20057;-69
2022/03/27 07:59:25;;;;;;;22.83;11.02;;;;;;;;;;5047656;28;20102;-68
2022/03/27 08:01:52;;;;;;;20.30;10.00;;;;;;;;;;5043612;28;20053;-68
2022/03/27 08:04:18;;;;;;;20.98;10.32;;;;;;;;;;5050234;28;20537;-68
2022/03/27 08:06:47;;;;;;;18.95;10.07;;;;;;;;;;5035544;28;20060;-68
2022/03/27 08:09:14;;;;;;;24.42;11.05;;;;;;;;;;5036818;28;20857;-68
2022/03/27 08:11:42;;;;;;;22.63;10.60;;;;;;;;;;5031723;28;20074;-68
2022/03/27 08:14:09;;;;;;;20.42;9.93;;;;;;;;;;5048108;28;20406;-68
2022/03/27 08:16:36;;;;;;;21.17;10.30;;;;;;;;;;5036239;28;20050;-68
2022/03/27 08:19:02;;;;;;;20.10;10.07;;;;;;;;;;5029187;28;20045;-68
2022/03/27 08:21:28;;;;;;;20.27;11.05;;;;;;;;;;5042729;28;20052;-68
2022/03/27 08:23:55;;;;;;;20.65;10.32;;;;;;;;;;5030356;28;20046;-68
2022/03/27 08:29:06;;;;;;;22.35;11.93;;;;;;;;;;5038169;28;20045;-68
2022/03/27 08:31:33;;;;;;;20.48;10.27;;;;;;;;;;5041622;28;20560;-68
2022/03/27 08:33:59;;;;;;;20.65;11.65;;;;;;;;;;5047649;28;20486;-68
2022/03/27 08:36:27;;;;;;;17.90;9.23;;;;;;;;;;5032823;28;20590;-68
2022/03/27 08:38:54;;;;;;;22.23;11.10;;;;;;;;;;5039622;28;20053;-68
2022/03/27 08:41:24;;;;;;;23.92;11.75;;;;;;;;;;5033346;28;20056;-68
2022/03/27 08:43:58;;;;;;;19.55;10.25;;;;;;;;;;5032003;28;20045;-68
2022/03/27 08:46:25;;;;;;;25.70;11.82;;;;;;;;;;5039835;28;20049;-68
2022/03/27 08:48:53;;;;;;;22.20;11.43;;;;;;;;;;5035150;28;20053;-68
2022/03/27 08:51:28;;;;;;;23.33;11.18;;;;;;;;;;5038849;28;20057;-68
2022/03/27 08:54:11;;;;;;;21.52;10.98;;;;;;;;;;5031876;28;20598;-68
2022/03/27 08:56:37;;;;;;;21.23;11.23;;;;;;;;;;5024690;28;20049;-68
2022/03/27 08:59:06;;;;;;;23.50;11.40;;;;;;;;;;5028120;28;20056;-68
2022/03/27 09:01:32;;;;;;;;;;;;;;;;;;5040487;28;20053;-68
2022/03/27 09:03:58;;;;;;;22.10;11.20;;;;;;;;;;5031815;28;19932;-68
2022/03/27 09:06:25;;;;;;;20.92;10.82;;;;;;;;;;5032973;28;20557;-68
2022/03/27 09:08:53;;;;;;;19.52;10.85;;;;;;;;;;5036243;28;20516;-67
2022/03/27 09:11:20;;;;;;;21.52;10.35;;;;;;;;;;5039205;28;20454;-69
2022/03/27 09:13:47;;;;;;;18.58;9.07;;;;;;;;;;5038037;28;20576;-68
2022/03/27 09:16:13;;;;;;;20.88;10.80;;;;;;;;;;5025490;28;20053;-68
2022/03/27 09:18:44;;;;;;;20.92;10.80;;;;;;;;;;5038399;28;20488;-68
2022/03/27 09:21:15;;;;;;;21.92;11.13;;;;;;;;;;5029201;28;20049;-68
2022/03/27 09:23:42;;;;;;;18.75;10.63;;;;;;;;;;5041916;28;20059;-68
2022/03/27 09:26:16;;;;;;;18.98;10.68;;;;;;;;;;5034478;28;20056;-69
2022/03/27 09:28:49;;;;;;;24.67;12.25;;;;;;;;;;5027827;28;20045;-68
2022/03/27 09:31:21;;;;;;;19.75;12.02;;;;;;;;;;5043291;28;20597;-68
2022/03/27 09:33:50;;;;;;;19.52;11.80;;;;;;;;;;5023452;28;20056;-68
2022/03/27 09:36:21;;;;;;;21.42;12.38;;;;;;;;;;5031780;28;20478;-68
2022/03/27 09:38:58;;;;;;;19.35;11.60;;;;;;;;;;5018834;28;20053;-68
2022/03/27 09:41:38;;;;;;;21.92;11.82;;;;;;;;;;5028347;28;20047;-67
2022/03/27 09:44:09;;;;;;;18.17;10.82;;;;;;;;;;5033878;28;20045;-68
2022/03/27 09:46:47;;;;;;;18.65;9.95;;;;;;;;;;5045110;28;20056;-67
2022/03/27 09:49:13;;;;;;;;;;;;;;;;;;5049312;28;20466;-67
2022/03/27 09:51:50;;;;;;;19.02;10.15;;;;;;;;;;5040017;28;19943;-67
2022/03/27 09:54:16;;;;;;;21.25;11.75;;;;;;;;;;5016857;28;20056;-68
2022/03/27 09:56:42;;;;;;;18.83;11.70;;;;;;;;;;5044323;28;20072;-68
2022/03/27 09:59:24;;;;;;;22.92;10.98;;;;;;;;;;5047772;28;20386;-68
2022/03/27 10:01:50;;;;;;;17.95;10.52;;;;;;;;;;5044949;28;20044;-68
2022/03/27 10:04:17;;;;;;;19.73;11.02;;;;;;;;;;5044543;28;20041;-68
2022/03/27 10:06:43;;;;;;;18.65;11.75;;;;;;;;;;5040408;28;20053;-69
2022/03/27 10:09:10;;;;;;;22.10;11.85;;;;;;;;;;5035441;28;20690;-68
2022/03/27 10:11:37;;;;;;;17.48;10.95;;;;;;;;;;5050962;28;20054;-69
2022/03/27 10:14:04;;;;;;;20.25;11.80;;;;;;;;;;5046113;28;20059;-69
2022/03/27 10:16:34;;;;;;;22.13;11.52;;;;;;;;;;5043106;28;20136;-69
2022/03/27 10:19:18;;;;;;;20.55;10.75;;;;;;;;;;5023656;28;20395;-68
2022/03/27 10:21:46;;;;;;;19.60;10.95;;;;;;;;;;5030500;28;20045;-68
2022/03/27 10:24:14;;;;;;;21.35;12.13;;;;;;;;;;5030746;28;20502;-68
2022/03/27 10:26:41;;;;;;;18.45;10.75;;;;;;;;;;5036857;28;20041;-69
2022/03/27 10:29:08;;;;;;;17.38;11.23;;;;;;;;;;5032408;28;20045;-68
2022/03/27 10:31:34;;;;;;;17.65;11.05;;;;;;;;;;5036923;28;20059;-69
2022/03/27 10:34:01;;;;;;;21.63;11.43;;;;;;;;;;5046683;28;20044;-68
2022/03/27 10:36:46;;;;;;;20.17;10.63;;;;;;;;;;5042972;28;20426;-69
2022/03/27 10:39:15;;;;;;;21.13;10.38;;;;;;;;;;5039974;28;20045;-69
2022/03/27 10:41:51;;;;;;;15.88;9.43;;;;;;;;;;5031360;28;20050;-69
2022/03/27 10:44:30;;;;;;;21.70;10.63;;;;;;;;;;5033950;28;20048;-68
2022/03/27 10:47:12;;;;;;;19.63;10.93;;;;;;;;;;5026844;28;20055;-68
2022/03/27 10:49:38;;;;;;;18.00;10.20;;;;;;;;;;5044246;28;20115;-68
2022/03/27 10:52:05;;;;;;;16.52;9.65;;;;;;;;;;5036169;28;20045;-68
2022/03/27 10:54:51;;;;;;;16.88;10.25;;;;;;;;;;5025818;28;20047;-68
2022/03/27 10:57:27;;;;;;;17.15;10.60;;;;;;;;;;5051303;28;20394;-69
2022/03/27 10:59:54;;;;;;;20.30;9.35;;;;;;;;;;5034779;28;20494;-68
2022/03/27 11:02:39;;;;;;;19.38;10.32;;;;;;;;;;5034628;28;20069;-69
2022/03/27 11:05:05;;;;;;;18.52;10.15;;;;;;;;;;5044802;28;20041;-69
2022/03/27 11:07:32;;;;;;;15.73;9.63;;;;;;;;;;5036733;28;20056;-68
2022/03/27 11:09:58;;;;;;;17.55;9.60;;;;;;;;;;5034701;28;20064;-68
2022/03/27 11:12:24;;;;;;;16.85;10.30;;;;;;;;;;5039785;28;20056;-68
2022/03/27 11:14:55;;;;;;;16.80;9.75;;;;;;;;;;5028563;28;20652;-68
2022/03/27 11:17:32;;;;;;;16.60;8.90;;;;;;;;;;5050268;28;20044;-69
2022/03/27 11:19:59;;;;;;;19.90;9.43;;;;;;;;;;5040786;28;20045;-69
2022/03/27 11:22:44;;;;;;;18.05;9.07;;;;;;;;;;5031611;28;20051;-68
2022/03/27 11:25:26;;;;;;;13.88;9.25;;;;;;;;;;5056392;28;20461;-68
2022/03/27 11:27:57;;;;;;;14.77;8.93;;;;;;;;;;5032209;28;20049;-68
2022/03/27 11:30:23;;;;;;;16.40;8.70;;;;;;;;;;5042909;28;20158;-69
2022/03/27 11:33:08;;;;;;;16.98;8.20;;;;;;;;;;5029591;28;20053;-68
2022/03/27 11:35:34;;;;;;;14.18;8.85;;;;;;;;;;5031433;28;20065;-69
2022/03/27 11:38:20;;;;;;;12.70;7.90;;;;;;;;;;5029917;28;20046;-69
2022/03/27 11:40:47;;;;;;;13.95;8.57;;;;;;;;;;5026417;28;20487;-68
2022/03/27 11:43:29;;;;;;;14.25;8.95;;;;;;;;;;5022588;28;20501;-68
2022/03/27 11:45:56;;;;;;;15.13;8.77;;;;;;;;;;5030922;28;20052;-69
2022/03/27 11:48:23;;;;;;;14.13;8.27;;;;;;;;;;5038018;28;20056;-69
2022/03/27 11:50:50;;;;;;;14.65;7.93;;;;;;;;;;5026280;28;20067;-70
2022/03/27 11:53:16;;;;;;;10.63;6.80;;;;;;;;;;5032139;28;20413;-69
2022/03/27 11:55:43;;;;;;;14.10;8.65;;;;;;;;;;5015609;28;20064;-69
2022/03/27 11:58:11;;;;;;;13.75;8.40;;;;;;;;;;5039170;28;20040;-68
2022/03/27 12:00:41;;;;;;;11.75;8.07;;;;;;;;;;5045055;28;20045;-69
2022/03/27 12:03:15;;;;;;;13.40;7.97;;;;;;;;;;5042114;28;20080;-69
2022/03/27 12:05:43;;;;;;;13.23;7.70;;;;;;;;;;5037422;28;20049;-69
2022/03/27 12:08:12;;;;;;;11.45;7.85;;;;;;;;;;5026716;28;20056;-69
2022/03/27 12:10:42;;;;;;;15.63;8.45;;;;;;;;;;5041888;28;20577;-69
2022/03/27 12:13:11;;;;;;;13.45;7.45;;;;;;;;;;5041699;28;20433;-68
2022/03/27 12:15:55;;;;;;;12.05;7.85;;;;;;;;;;5046062;28;20128;-69
2022/03/27 12:18:26;;;;;;;10.68;6.43;;;;;;;;;;5038265;28;20049;-70
2022/03/27 12:20:53;;;;;;;14.80;7.70;;;;;;;;;;5045600;28;20055;-69
2022/03/27 12:23:21;;;;;;;12.73;7.72;;;;;;;;;;5034934;28;20053;-69
2022/03/27 12:25:59;;;;;;;13.15;7.20;;;;;;;;;;5035301;28;20068;-68
2022/03/27 12:31:19;;;;;;;14.85;7.63;;;;;;;;;;5038142;28;20048;-68
2022/03/27 12:33:47;;;;;;;12.35;7.10;;;;;;;;;;5038113;28;20135;-69
2022/03/27 12:36:19;;;;;;;12.43;6.97;;;;;;;;;;5027226;28;20049;-68
2022/03/27 12:38:45;;;;;;;12.60;7.20;;;;;;;;;;5041024;28;20131;-68
2022/03/27 12:41:12;;;;;;;9.63;5.85;;;;;;;;;;5035060;28;20230;-68
2022/03/27 12:43:42;;;;;;;12.85;7.32;;;;;;;;;;5050735;28;20052;-68
2022/03/27 12:46:19;;;;;;;12.23;7.32;;;;;;;;;;5046885;28;20045;-69
2022/03/27 12:49:03;;;;;;;12.48;6.65;;;;;;;;;;5031704;28;20053;-68
2022/03/27 12:51:29;;;;;;;25.73;7.68;;;;;;;;;;5043600;28;20049;-69
2022/03/27 12:53:59;;;;;;;10.82;6.95;;;;;;;;;;5033832;28;20041;-68
2022/03/27 12:56:26;;;;;;;11.77;7.40;;;;;;;;;;5047025;28;20054;-68
2022/03/27 12:58:52;;;;;;;10.38;6.20;;;;;;;;;;5034977;28;20518;-69
2022/03/27 13:01:19;;;;;;;13.35;6.80;;;;;;;;;;5046933;28;20045;-69
2022/03/27 13:04:07;;;;;;;11.60;6.78;;;;;;;;;;5033960;28;20170;-69
2022/03/27 13:06:35;;;;;;;10.23;6.03;;;;;;;;;;5037173;28;20541;-69
2022/03/27 13:09:03;;;;;;;14.18;6.72;;;;;;;;;;5041239;28;20056;-69
2022/03/27 13:11:29;;;;;;;10.77;6.85;;;;;;;;;;5047205;28;20063;-69
2022/03/27 13:14:00;;;;;;;12.20;6.93;;;;;;;;;;5051040;28;20045;-69
2022/03/27 13:16:30;;;;;;;13.10;7.47;;;;;;;;;;5039476;28;20045;-69
2022/03/27 13:18:59;;;;;;;12.27;7.47;;;;;;;;;;5044399;28;20061;-69
2022/03/27 13:21:27;;;;;;;11.50;7.15;;;;;;;;;;5043260;28;20052;-69
2022/03/27 13:23:53;;;;;;;14.10;7.63;;;;;;;;;;5052526;28;20056;-69
2022/03/27 13:26:21;;;;;;;12.18;7.28;;;;;;;;;;5052903;28;20056;-70
2022/03/27 13:28:47;;;;;;;14.38;7.70;;;;;;;;;;5042662;28;20501;-70
2022/03/27 13:31:13;;;;;;;14.90;7.63;;;;;;;;;;5051686;28;20044;-69
2022/03/27 13:33:40;;;;;;;12.15;6.78;;;;;;;;;;5031583;28;20053;-69
2022/03/27 13:36:06;;;;;;;13.23;7.25;;;;;;;;;;5047097;28;20053;-69
2022/03/27 13:38:33;;;;;;;12.82;7.18;;;;;;;;;;5037727;28;20045;-69
2022/03/27 13:43:50;;;;;;;12.27;6.35;;;;;;;;;;5029716;28;20512;-69
2022/03/27 13:46:17;;;;;;;13.65;6.45;;;;;;;;;;5046110;28;20485;-69
2022/03/27 13:48:43;;;;;;;12.70;6.57;;;;;;;;;;5040240;28;20046;-69
2022/03/27 13:51:09;;;;;;;16.98;7.63;;;;;;;;;;5027528;28;20075;-69
2022/03/27 13:53:36;;;;;;;11.52;6.82;;;;;;;;;;5045451;28;20063;-69
2022/03/27 13:56:02;;;;;;;13.18;7.00;;;;;;;;;;5033773;28;20060;-69
2022/03/27 13:58:29;;;;;;;16.05;7.15;;;;;;;;;;5035635;28;20057;-69
2022/03/27 14:00:58;;;;;;;11.07;6.90;;;;;;;;;;5033647;28;20682;-69
2022/03/27 14:03:26;;;;;;;13.27;7.03;;;;;;;;;;5032256;28;20072;-68
2022/03/27 14:05:52;;;;;;;12.10;6.57;;;;;;;;;;5050077;28;20044;-69
2022/03/27 14:08:19;;;;;;;13.40;6.80;;;;;;;;;;5044209;28;20051;-69
2022/03/27 14:10:45;;;;;;;11.07;5.65;;;;;;;;;;5053126;28;20067;-69
2022/03/27 14:13:11;;;;;;;13.90;7.43;;;;;;;;;;5032245;28;20422;-69
2022/03/27 14:15:39;;;;;;;12.98;6.95;;;;;;;;;;5045307;28;20049;-68
2022/03/27 14:18:05;;;;;;;13.25;7.22;;;;;;;;;;5039942;28;20716;-69
2022/03/27 14:20:32;;;;;;;16.42;7.07;;;;;;;;;;5048183;28;20056;-69
2022/03/27 14:22:59;;;;;;;12.43;6.68;;;;;;;;;;5042829;28;20045;-69
2022/03/27 14:25:26;;;;;;;11.65;6.70;;;;;;;;;;5036790;28;20048;-69
2022/03/27 14:27:52;;;;;;;15.63;6.82;;;;;;;;;;5039224;28;20049;-69
2022/03/27 14:30:21;;;;;;;11.88;6.72;;;;;;;;;;5032488;28;20073;-69
2022/03/27 14:32:48;;;;;;;14.88;6.35;;;;;;;;;;5046749;28;20049;-69
2022/03/27 14:35:15;;;;;;;11.88;6.13;;;;;;;;;;5043368;28;20056;-68
2022/03/27 14:37:42;;;;;;;17.70;5.85;;;;;;;;;;5048181;28;20074;-69
2022/03/27 14:40:10;;;;;;;18.85;6.78;;;;;;;;;;5035843;28;20260;-69
2022/03/27 14:42:37;;;;;;;10.93;6.10;;;;;;;;;;5039707;28;20067;-69
2022/03/27 14:45:05;;;;;;;14.23;6.35;;;;;;;;;;5053018;28;20080;-70
2022/03/27 14:47:33;;;;;;;14.50;6.22;;;;;;;;;;5036997;28;20643;-71